Duluth, MN

9:18 AM CST on January 26, 2015 (GMT -0600)
Duluth Sky Harbor | Change Station
CLOSE
Current Station
Airport
Location: Duluth Sky Harbor,
Elevation: 610 ft
Nearby Weather Stations
Active Advisory: Special Statement

Elev 610 ft 46.72 °N, 92.04 °W | Updated 25 minutes ago

Snow
Snow
23 °F
Feels Like 23 °F
N
0
Wind Variable Wind from North

Today
High -- | Low -- °F
--% Chance of Precip.
Yesterday
High -- | Low -- °F
Precip. -- in
7:39 AM 5:02 PM
Waxing Crescent, 44% visible
Pressure 29.68 in
Visibility 2.5 miles
Clouds Overcast 1100 ft
Dew Point 21 °F
Humidity 93%
Rainfall 0.00 in
Snow Depth Not available.
UV 0 out of 12
Pollen .10 out of 12
Air Quality Not available.
Flu Activity Not available.
METAR KDYT 261453Z AUTO 00000KT 2 1/2SM BR OVC011 M05/M06 A2968 RMK AO2

More Conditions Fewer Conditions

Pressure 29.68 in
Visibility 2.5 miles
Clouds Overcast 1100 ft
Dew Point 21 °F
Humidity 93%
Rainfall 0.00 in
Snow Depth Not available.
UV 0 out of 12
Pollen .10 out of 12
Air Quality Not available.
Flu Activity Not available.
METAR KDYT 261453Z AUTO 00000KT 2 1/2SM BR OVC011 M05/M06 A2968 RMK AO2

More Conditions Fewer Conditions

10-Day Weather Forecast

Almanac

Astronomy

Jan. 26, 2015 Rise Set
Actual Time
Civil Twilight
Nautical Twilight
Astronomical Twilight
Moon
Length of Visible Light
Length of Day
Tomorrow will be .
, % of the Moon is Illuminated

Today's Extremes

State Highs State Lows

Community

WunderPhotos

Upload Photos

1,790,234 photos uploaded!

WunderBlogs® & News

Nearby

Air Quality

  Air Quality AQ Index Pollutant
Not available.

Snow Depth

Station Depth Elevation

Earthquake Activity

City Distance Mag. Time & Date
Minimum magnitude displayed is 2.5.

Coastal Water Temperatures

Place Temperature

Nearby Weather Stations